Las Vegas, Nevada
Traffic Map
Current Weather Conditions
Las Vegas, Nevada
Few Clouds
Few Clouds
109°
Feels Like: 109°
Wind Chill: 109° Ceiling: Unl
Heat Index: 109° Visibility: 10mi
Dew Point: 31° Wind: 17mph
Humidity: 7% Direction: 190° (S)
Pressure: 29.81in Gusts: 24mph
Raw Report DataKLAS 241956Z 19015G21KT 10SM FEW150 43/M01 A2981 RMK AO2 SLP060 T04281006
Traffic Incident Summary
Active as of:
Severity:
Category:
InformationThere was an issue retrieving the traffic information for this location. Please try a different location or try again shortly.
Advertisements
Track Severe Weather on mobile